Balakot, Pakistan

10:25 AM PKT on December 27, 2014 (GMT +0500)
Chacklala International | Change Station
CLOSE
Current Station
Airport
Location: Islamabad,
Elevation: 1667 ft
Nearby Weather Stations

Elev 1667 ft 33.62 °N, 73.10 °E | Updated 25 minutes ago

Haze
Haze
45 °F
Feels Like 45 °F
N
0
Wind Variable Wind from North

Today
High -- | Low -- °F
--% Chance of Precip.
Yesterday
High -- | Low -- °F
Precip. -- in
7:11 AM 5:03 PM
Waxing Crescent, 33% visible
Pressure 30.06 in
Visibility 1.6 miles
Clouds Clear
Dew Point 34 °F
Humidity 66%
Rainfall 0.00 in
Snow Depth Not available.
UV 2 out of 12
Pollen Not available.
Air Quality Not available.
Flu Activity Not available.
METAR OPRN 270500Z 00000KT 2500 HZ SKC 07/01 Q1018.8/30.08

More Conditions Fewer Conditions

Pressure 30.06 in
Visibility 1.6 miles
Clouds Clear
Dew Point 34 °F
Humidity 66%
Rainfall 0.00 in
Snow Depth Not available.
UV 2 out of 12
Pollen Not available.
Air Quality Not available.
Flu Activity Not available.
METAR OPRN 270500Z 00000KT 2500 HZ SKC 07/01 Q1018.8/30.08

More Conditions Fewer Conditions

10-Day Weather Forecast

Almanac

Astronomy

Dec. 27, 2014 Rise Set
Actual Time
Civil Twilight
Nautical Twilight
Astronomical Twilight
Moon
Length of Visible Light
Length of Day
Tomorrow will be .
, % of the Moon is Illuminated

Today's Extremes

Country Highs Country Lows

Community

WunderPhotos

Upload Photos

1,780,848 photos uploaded!

WunderBlogs® & News

Nearby

Air Quality

  Air Quality AQ Index Pollutant
Not available.

Snow Depth

Station Depth Elevation

Earthquake Activity

City Distance Mag. Time & Date
Minimum magnitude displayed is 2.5.

Coastal Water Temperatures

Place Temperature

Nearby Weather Stations